sensor_id;sensor_type;location;lat;lon;timestamp;pressure;altitude;pressure_sealevel;temperature;humidity
47374;BME280;33123;50.118;10.272;2023-02-02T00:00:50;97873.56;;;4.61;73.62
47374;BME280;33123;50.118;10.272;2023-02-02T00:03:17;97871.34;;;4.58;73.44
47374;BME280;33123;50.118;10.272;2023-02-02T00:05:45;97867.94;;;4.58;73.85
47374;BME280;33123;50.118;10.272;2023-02-02T00:08:13;97864.72;;;4.49;73.55
47374;BME280;33123;50.118;10.272;2023-02-02T00:10:39;97863.31;;;4.53;74.05
47374;BME280;33123;50.118;10.272;2023-02-02T00:13:06;97861.72;;;4.52;74.01
47374;BME280;33123;50.118;10.272;2023-02-02T00:15:32;97860.09;;;4.51;73.92
47374;BME280;33123;50.118;10.272;2023-02-02T00:17:59;97835.44;;;4.27;73.89
47374;BME280;33123;50.118;10.272;2023-02-02T00:20:26;97868.13;;;4.49;74.63
47374;BME280;33123;50.118;10.272;2023-02-02T00:22:53;97867.94;;;4.51;74.33
47374;BME280;33123;50.118;10.272;2023-02-02T00:25:22;97866.34;;;4.50;74.07
47374;BME280;33123;50.118;10.272;2023-02-02T00:27:48;97868.34;;;4.48;74.64
47374;BME280;33123;50.118;10.272;2023-02-02T00:30:15;97875.16;;;4.49;74.45
47374;BME280;33123;50.118;10.272;2023-02-02T00:32:42;97870.94;;;4.48;74.31
47374;BME280;33123;50.118;10.272;2023-02-02T00:35:09;97869.94;;;4.49;74.62
47374;BME280;33123;50.118;10.272;2023-02-02T00:37:36;97873.56;;;4.48;74.40
47374;BME280;33123;50.118;10.272;2023-02-02T00:40:03;97871.97;;;4.40;74.49
47374;BME280;33123;50.118;10.272;2023-02-02T00:42:31;97881.81;;;4.45;74.58
47374;BME280;33123;50.118;10.272;2023-02-02T00:45:00;97889.00;;;4.43;74.55
47374;BME280;33123;50.118;10.272;2023-02-02T00:47:44;97873.38;;;4.23;74.43
47374;BME280;33123;50.118;10.272;2023-02-02T00:50:17;97885.81;;;4.41;74.42
47374;BME280;33123;50.118;10.272;2023-02-02T00:52:48;97893.03;;;4.39;74.52
47374;BME280;33123;50.118;10.272;2023-02-02T00:55:27;97895.44;;;4.34;74.63
47374;BME280;33123;50.118;10.272;2023-02-02T00:58:01;97896.25;;;4.34;74.53
47374;BME280;33123;50.118;10.272;2023-02-02T01:00:34;97898.25;;;4.32;74.72
47374;BME280;33123;50.118;10.272;2023-02-02T01:03:08;97892.84;;;4.34;74.98
47374;BME280;33123;50.118;10.272;2023-02-02T01:05:38;97887.63;;;4.34;75.36
47374;BME280;33123;50.118;10.272;2023-02-02T01:08:05;97893.03;;;4.39;75.21
47374;BME280;33123;50.118;10.272;2023-02-02T01:10:35;97888.63;;;4.39;75.34
47374;BME280;33123;50.118;10.272;2023-02-02T01:13:03;97883.38;;;4.33;74.94
47374;BME280;33123;50.118;10.272;2023-02-02T01:15:30;97884.22;;;4.33;75.19
47374;BME280;33123;50.118;10.272;2023-02-02T01:17:57;97883.38;;;4.33;75.34
47374;BME280;33123;50.118;10.272;2023-02-02T01:20:24;97889.22;;;4.35;75.39
47374;BME280;33123;50.118;10.272;2023-02-02T01:22:51;97877.78;;;4.36;75.44
47374;BME280;33123;50.118;10.272;2023-02-02T01:25:18;97842.06;;;4.16;75.67
47374;BME280;33123;50.118;10.272;2023-02-02T01:27:45;97870.16;;;4.41;75.85
47374;BME280;33123;50.118;10.272;2023-02-02T01:30:13;97869.94;;;4.42;75.45
47374;BME280;33123;50.118;10.272;2023-02-02T01:32:40;97868.34;;;4.35;75.46
47374;BME280;33123;50.118;10.272;2023-02-02T01:35:07;97865.13;;;4.33;75.12
47374;BME280;33123;50.118;10.272;2023-02-02T01:37:34;97893.44;;;4.42;75.12
47374;BME280;33123;50.118;10.272;2023-02-02T01:40:01;97901.47;;;4.41;75.11
47374;BME280;33123;50.118;10.272;2023-02-02T01:42:28;97902.28;;;4.41;75.35
47374;BME280;33123;50.118;10.272;2023-02-02T01:45:26;97918.34;;;4.45;75.50
47374;BME280;33123;50.118;10.272;2023-02-02T01:47:55;97900.47;;;4.42;75.23
47374;BME280;33123;50.118;10.272;2023-02-02T01:50:27;97906.28;;;4.44;75.12
47374;BME280;33123;50.118;10.272;2023-02-02T01:52:57;97901.25;;;4.36;75.30
47374;BME280;33123;50.118;10.272;2023-02-02T01:55:25;97897.06;;;4.28;75.16
47374;BME280;33123;50.118;10.272;2023-02-02T01:57:56;97899.03;;;4.33;74.79
47374;BME280;33123;50.118;10.272;2023-02-02T02:00:25;97895.03;;;4.37;75.02
47374;BME280;33123;50.118;10.272;2023-02-02T02:02:56;97890.63;;;4.37;74.81
47374;BME280;33123;50.118;10.272;2023-02-02T02:05:27;97882.59;;;4.32;74.74
47374;BME280;33123;50.118;10.272;2023-02-02T02:08:01;97893.84;;;4.39;74.69
47374;BME280;33123;50.118;10.272;2023-02-02T02:10:29;97887.44;;;4.29;74.61
47374;BME280;33123;50.118;10.272;2023-02-02T02:12:56;97904.06;;;4.41;74.41
47374;BME280;33123;50.118;10.272;2023-02-02T02:15:24;97902.06;;;4.43;74.36
47374;BME280;33123;50.118;10.272;2023-02-02T02:18:21;97908.06;;;4.43;74.20
47374;BME280;33123;50.118;10.272;2023-02-02T02:24:30;97914.28;;;4.49;73.53
47374;BME280;33123;50.118;10.272;2023-02-02T02:27:37;97911.50;;;4.50;73.66
47374;BME280;33123;50.118;10.272;2023-02-02T02:30:38;97914.28;;;4.49;73.77
47374;BME280;33123;50.118;10.272;2023-02-02T02:33:14;97909.50;;;4.46;73.79
47374;BME280;33123;50.118;10.272;2023-02-02T02:35:49;97910.88;;;4.55;73.91
47374;BME280;33123;50.118;10.272;2023-02-02T02:38:24;97910.69;;;4.57;73.57
47374;BME280;33123;50.118;10.272;2023-02-02T02:40:56;97923.75;;;4.57;73.79
47374;BME280;33123;50.118;10.272;2023-02-02T02:43:28;97916.91;;;4.62;73.40
47374;BME280;33123;50.118;10.272;2023-02-02T02:45:56;97916.28;;;4.60;73.69
47374;BME280;33123;50.118;10.272;2023-02-02T02:48:24;97909.69;;;4.64;73.57
47374;BME280;33123;50.118;10.272;2023-02-02T02:50:51;97887.38;;;4.55;73.89
47374;BME280;33123;50.118;10.272;2023-02-02T02:53:20;97908.66;;;4.65;73.92
47374;BME280;33123;50.118;10.272;2023-02-02T02:55:52;97906.06;;;4.65;73.73
47374;BME280;33123;50.118;10.272;2023-02-02T02:58:26;97902.25;;;4.68;73.94
47374;BME280;33123;50.118;10.272;2023-02-02T03:01:04;97909.47;;;4.72;73.49
47374;BME280;33123;50.118;10.272;2023-02-02T03:03:51;97905.66;;;4.75;73.50
47374;BME280;33123;50.118;10.272;2023-02-02T03:06:28;97899.22;;;4.71;74.02
47374;BME280;33123;50.118;10.272;2023-02-02T03:09:02;97906.66;;;4.81;73.76
47374;BME280;33123;50.118;10.272;2023-02-02T03:11:30;97907.22;;;4.83;73.76
47374;BME280;33123;50.118;10.272;2023-02-02T03:13:57;97907.06;;;4.84;74.14
47374;BME280;33123;50.118;10.272;2023-02-02T03:16:24;97903.22;;;4.87;73.96
47374;BME280;33123;50.118;10.272;2023-02-02T03:18:52;97901.41;;;4.87;74.08
47374;BME280;33123;50.118;10.272;2023-02-02T03:21:20;97897.41;;;4.71;74.15
47374;BME280;33123;50.118;10.272;2023-02-02T03:23:46;97890.81;;;4.69;74.79
47374;BME280;33123;50.118;10.272;2023-02-02T03:26:13;97909.84;;;4.83;74.26
47374;BME280;33123;50.118;10.272;2023-02-02T03:28:40;97897.44;;;4.78;74.35
47374;BME280;33123;50.118;10.272;2023-02-02T03:31:07;97909.25;;;4.81;74.60
47374;BME280;33123;50.118;10.272;2023-02-02T03:33:35;97908.88;;;4.84;74.42
47374;BME280;33123;50.118;10.272;2023-02-02T03:36:04;97915.09;;;4.89;74.64
47374;BME280;33123;50.118;10.272;2023-02-02T03:38:30;97903.41;;;4.92;74.56
47374;BME280;33123;50.118;10.272;2023-02-02T03:40:57;97928.50;;;4.99;74.50
47374;BME280;33123;50.118;10.272;2023-02-02T03:43:24;97899.00;;;4.86;74.41
47374;BME280;33123;50.118;10.272;2023-02-02T03:45:55;97919.69;;;5.00;74.72
47374;BME280;33123;50.118;10.272;2023-02-02T03:48:21;97913.47;;;4.95;74.33
47374;BME280;33123;50.118;10.272;2023-02-02T03:50:48;97928.72;;;4.98;74.52
47374;BME280;33123;50.118;10.272;2023-02-02T03:53:16;97932.72;;;5.07;74.19
47374;BME280;33123;50.118;10.272;2023-02-02T03:55:42;97931.91;;;5.07;74.55
47374;BME280;33123;50.118;10.272;2023-02-02T03:58:09;97932.50;;;5.09;73.95
47374;BME280;33123;50.118;10.272;2023-02-02T04:00:36;97929.69;;;5.10;74.16
47374;BME280;33123;50.118;10.272;2023-02-02T04:03:02;97943.34;;;5.12;74.21
47374;BME280;33123;50.118;10.272;2023-02-02T04:05:29;97940.75;;;5.12;74.57
47374;BME280;33123;50.118;10.272;2023-02-02T04:07:56;97947.97;;;5.17;74.43
47374;BME280;33123;50.118;10.272;2023-02-02T04:10:23;97949.59;;;5.11;75.00
47374;BME280;33123;50.118;10.272;2023-02-02T04:12:50;97948.97;;;5.16;74.70
47374;BME280;33123;50.118;10.272;2023-02-02T04:15:17;97954.81;;;5.18;74.10
47374;BME280;33123;50.118;10.272;2023-02-02T04:17:43;97941.38;;;5.01;74.20
47374;BME280;33123;50.118;10.272;2023-02-02T04:20:11;97928.94;;;4.90;74.66
47374;BME280;33123;50.118;10.272;2023-02-02T04:22:37;97957.63;;;5.10;74.82
47374;BME280;33123;50.118;10.272;2023-02-02T04:25:04;97954.41;;;5.08;74.95
47374;BME280;33123;50.118;10.272;2023-02-02T04:27:32;97958.41;;;5.10;74.58
47374;BME280;33123;50.118;10.272;2023-02-02T04:29:59;97958.41;;;5.10;74.85
47374;BME280;33123;50.118;10.272;2023-02-02T04:32:26;97951.38;;;5.11;74.47
47374;BME280;33123;50.118;10.272;2023-02-02T04:34:52;97964.25;;;5.12;74.91
47374;BME280;33123;50.118;10.272;2023-02-02T04:37:19;97962.66;;;5.11;74.65
47374;BME280;33123;50.118;10.272;2023-02-02T04:39:47;97961.03;;;5.10;74.98
47374;BME280;33123;50.118;10.272;2023-02-02T04:42:13;97966.88;;;5.12;74.88
47374;BME280;33123;50.118;10.272;2023-02-02T04:44:41;97971.09;;;5.13;74.78
47374;BME280;33123;50.118;10.272;2023-02-02T04:47:10;97970.88;;;5.08;75.15
47374;BME280;33123;50.118;10.272;2023-02-02T04:49:36;97979.53;;;5.09;75.01
47374;BME280;33123;50.118;10.272;2023-02-02T04:52:03;97974.72;;;5.12;74.89
47374;BME280;33123;50.118;10.272;2023-02-02T04:54:30;97980.53;;;5.14;75.00
47374;BME280;33123;50.118;10.272;2023-02-02T04:56:56;97978.13;;;5.13;75.18
47374;BME280;33123;50.118;10.272;2023-02-02T04:59:23;97981.09;;;5.16;75.18
47374;BME280;33123;50.118;10.272;2023-02-02T05:01:51;97979.72;;;5.14;75.21
47374;BME280;33123;50.118;10.272;2023-02-02T05:04:18;97988.59;;;5.06;75.23
47374;BME280;33123;50.118;10.272;2023-02-02T05:06:44;97985.97;;;5.13;75.54
47374;BME280;33123;50.118;10.272;2023-02-02T05:09:11;97982.75;;;5.17;75.75
47374;BME280;33123;50.118;10.272;2023-02-02T05:11:39;97973.09;;;5.18;75.73
47374;BME280;33123;50.118;10.272;2023-02-02T05:14:08;97974.28;;;5.22;75.62
47374;BME280;33123;50.118;10.272;2023-02-02T05:16:35;97987.34;;;5.22;75.79
47374;BME280;33123;50.118;10.272;2023-02-02T05:19:05;97992.97;;;5.25;75.93
47374;BME280;33123;50.118;10.272;2023-02-02T05:21:32;97989.75;;;5.30;75.77
47374;BME280;33123;50.118;10.272;2023-02-02T05:23:58;97984.09;;;5.26;75.50
47374;BME280;33123;50.118;10.272;2023-02-02T05:26:26;97990.13;;;5.27;75.25
47374;BME280;33123;50.118;10.272;2023-02-02T05:28:52;97994.16;;;5.29;75.33
47374;BME280;33123;50.118;10.272;2023-02-02T05:31:19;97994.97;;;5.30;75.12
47374;BME280;33123;50.118;10.272;2023-02-02T05:33:46;97990.97;;;5.27;75.29
47374;BME280;33123;50.118;10.272;2023-02-02T05:36:14;97988.94;;;5.29;75.48
47374;BME280;33123;50.118;10.272;2023-02-02T05:38:41;97992.13;;;5.32;75.56
47374;BME280;33123;50.118;10.272;2023-02-02T05:41:07;97985.72;;;5.34;75.35
47374;BME280;33123;50.118;10.272;2023-02-02T05:43:34;97997.38;;;5.32;75.10
47374;BME280;33123;50.118;10.272;2023-02-02T05:46:01;97994.16;;;5.36;75.09
47374;BME280;33123;50.118;10.272;2023-02-02T05:48:27;98000.97;;;5.37;75.03
47374;BME280;33123;50.118;10.272;2023-02-02T05:50:58;98002.00;;;5.36;75.42
47374;BME280;33123;50.118;10.272;2023-02-02T05:53:28;98009.81;;;5.36;75.37
47374;BME280;33123;50.118;10.272;2023-02-02T05:55:55;97997.78;;;5.28;75.01
47374;BME280;33123;50.118;10.272;2023-02-02T05:58:22;98011.03;;;5.40;75.02
47374;BME280;33123;50.118;10.272;2023-02-02T06:00:48;98017.47;;;5.38;74.86
47374;BME280;33123;50.118;10.272;2023-02-02T06:03:15;98011.84;;;5.41;74.78
47374;BME280;33123;50.118;10.272;2023-02-02T06:05:42;98006.59;;;5.41;74.56
47374;BME280;33123;50.118;10.272;2023-02-02T06:08:08;98008.63;;;5.39;74.73
47374;BME280;33123;50.118;10.272;2023-02-02T06:10:38;98006.59;;;5.41;75.21
47374;BME280;33123;50.118;10.272;2023-02-02T06:13:06;98000.16;;;5.37;74.62
47374;BME280;33123;50.118;10.272;2023-02-02T06:15:32;97997.34;;;5.38;74.88
47374;BME280;33123;50.118;10.272;2023-02-02T06:18:00;97994.94;;;5.37;74.97
47374;BME280;33123;50.118;10.272;2023-02-02T06:20:27;98003.41;;;5.32;74.66
47374;BME280;33123;50.118;10.272;2023-02-02T06:22:54;98018.66;;;5.42;75.05
47374;BME280;33123;50.118;10.272;2023-02-02T06:25:20;98016.28;;;5.34;74.85
47374;BME280;33123;50.118;10.272;2023-02-02T06:27:49;98014.03;;;5.44;75.16
47374;BME280;33123;50.118;10.272;2023-02-02T06:30:16;98015.84;;;5.37;75.44
47374;BME280;33123;50.118;10.272;2023-02-02T06:32:43;98006.03;;;5.39;75.40
47374;BME280;33123;50.118;10.272;2023-02-02T06:35:09;98018.66;;;5.42;75.43
47374;BME280;33123;50.118;10.272;2023-02-02T06:37:36;98008.41;;;5.40;75.28
47374;BME280;33123;50.118;10.272;2023-02-02T06:40:05;98013.84;;;5.39;75.05
47374;BME280;33123;50.118;10.272;2023-02-02T06:42:32;98013.44;;;5.42;75.55
47374;BME280;33123;50.118;10.272;2023-02-02T06:45:00;98010.44;;;5.45;75.37
47374;BME280;33123;50.118;10.272;2023-02-02T06:47:27;98018.06;;;5.46;75.10
47374;BME280;33123;50.118;10.272;2023-02-02T06:49:53;98015.84;;;5.43;75.36
47374;BME280;33123;50.118;10.272;2023-02-02T06:52:20;98017.03;;;5.47;74.95
47374;BME280;33123;50.118;10.272;2023-02-02T06:54:46;98022.06;;;5.49;74.90
47374;BME280;33123;50.118;10.272;2023-02-02T06:57:13;98026.31;;;5.50;75.15
47374;BME280;33123;50.118;10.272;2023-02-02T06:59:40;98022.66;;;5.51;74.94
47374;BME280;33123;50.118;10.272;2023-02-02T07:02:11;98028.69;;;5.51;75.13
47374;BME280;33123;50.118;10.272;2023-02-02T07:04:38;98017.44;;;5.51;75.00
47374;BME280;33123;50.118;10.272;2023-02-02T07:07:04;97986.31;;;5.36;74.46
47374;BME280;33123;50.118;10.272;2023-02-02T07:09:31;98013.81;;;5.52;74.82
47374;BME280;33123;50.118;10.272;2023-02-02T07:11:58;98012.81;;;5.53;74.96
47374;BME280;33123;50.118;10.272;2023-02-02T07:14:24;98008.59;;;5.52;74.81
47374;BME280;33123;50.118;10.272;2023-02-02T07:16:52;98018.84;;;5.53;74.49
47374;BME280;33123;50.118;10.272;2023-02-02T07:19:20;98020.66;;;5.53;74.67
47374;BME280;33123;50.118;10.272;2023-02-02T07:21:46;98025.88;;;5.53;74.94
47374;BME280;33123;50.118;10.272;2023-02-02T07:24:13;98022.25;;;5.54;74.85
47374;BME280;33123;50.118;10.272;2023-02-02T07:26:39;98019.44;;;5.55;74.26
47374;BME280;33123;50.118;10.272;2023-02-02T07:29:06;98018.44;;;5.56;74.42
47374;BME280;33123;50.118;10.272;2023-02-02T07:31:34;98013.00;;;5.58;74.21
47374;BME280;33123;50.118;10.272;2023-02-02T07:34:01;98019.81;;;5.59;74.61
47374;BME280;33123;50.118;10.272;2023-02-02T07:36:29;98017.22;;;5.59;74.62
47374;BME280;33123;50.118;10.272;2023-02-02T07:38:55;98008.59;;;5.52;74.79
47374;BME280;33123;50.118;10.272;2023-02-02T07:41:23;98020.22;;;5.63;74.85
47374;BME280;33123;50.118;10.272;2023-02-02T07:43:50;98024.22;;;5.65;74.84
47374;BME280;33123;50.118;10.272;2023-02-02T07:46:17;98029.28;;;5.67;74.93
47374;BME280;33123;50.118;10.272;2023-02-02T07:48:44;98029.63;;;5.70;74.39
47374;BME280;33123;50.118;10.272;2023-02-02T07:51:14;98035.47;;;5.72;74.24
47374;BME280;33123;50.118;10.272;2023-02-02T07:53:43;98027.44;;;5.74;74.57
47374;BME280;33123;50.118;10.272;2023-02-02T07:56:12;98030.63;;;5.76;74.70
47374;BME280;33123;50.118;10.272;2023-02-02T07:58:38;98029.25;;;5.73;73.87
47374;BME280;33123;50.118;10.272;2023-02-02T08:01:07;98029.81;;;5.75;74.74
47374;BME280;33123;50.118;10.272;2023-02-02T08:03:35;98029.03;;;5.75;74.62
47374;BME280;33123;50.118;10.272;2023-02-02T08:06:08;98037.28;;;5.78;74.15
47374;BME280;33123;50.118;10.272;2023-02-02T08:08:36;98032.63;;;5.80;74.17
47374;BME280;33123;50.118;10.272;2023-02-02T08:11:04;98050.72;;;5.82;74.32
47374;BME280;33123;50.118;10.272;2023-02-02T08:13:33;98046.28;;;5.82;74.32
47374;BME280;33123;50.118;10.272;2023-02-02T08:15:59;98042.47;;;5.85;74.47
47374;BME280;33123;50.118;10.272;2023-02-02T08:18:26;98040.66;;;5.86;74.09
47374;BME280;33123;50.118;10.272;2023-02-02T08:20:52;98045.69;;;5.87;74.55
47374;BME280;33123;50.118;10.272;2023-02-02T08:23:19;98037.66;;;5.89;73.92
47374;BME280;33123;50.118;10.272;2023-02-02T08:25:48;98040.25;;;5.89;73.87
47374;BME280;33123;50.118;10.272;2023-02-02T08:28:16;98038.22;;;5.91;73.97
47374;BME280;33123;50.118;10.272;2023-02-02T08:30:43;98045.28;;;5.90;74.02
47374;BME280;33123;50.118;10.272;2023-02-02T08:33:09;98041.06;;;5.89;73.69
47374;BME280;33123;50.118;10.272;2023-02-02T08:35:39;98038.44;;;5.89;73.68
47374;BME280;33123;50.118;10.272;2023-02-02T08:38:06;98038.63;;;5.88;73.56
47374;BME280;33123;50.118;10.272;2023-02-02T08:40:33;98034.63;;;5.85;73.73
47374;BME280;33123;50.118;10.272;2023-02-02T08:42:59;98039.25;;;5.90;73.38
47374;BME280;33123;50.118;10.272;2023-02-02T08:45:29;98040.25;;;5.89;73.38
47374;BME280;33123;50.118;10.272;2023-02-02T08:47:55;98040.25;;;5.89;73.46
47374;BME280;33123;50.118;10.272;2023-02-02T08:50:22;98042.66;;;5.90;73.42
47374;BME280;33123;50.118;10.272;2023-02-02T08:52:49;98042.66;;;5.90;73.60
47374;BME280;33123;50.118;10.272;2023-02-02T08:55:15;98039.06;;;5.91;73.43
47374;BME280;33123;50.118;10.272;2023-02-02T08:57:42;98038.84;;;5.93;73.27
47374;BME280;33123;50.118;10.272;2023-02-02T09:00:09;98027.38;;;5.94;73.23
47374;BME280;33123;50.118;10.272;2023-02-02T09:02:38;98031.78;;;5.93;73.70
47374;BME280;33123;50.118;10.272;2023-02-02T09:05:05;98039.66;;;5.93;73.75
47374;BME280;33123;50.118;10.272;2023-02-02T09:07:32;98036.03;;;5.94;73.70
47374;BME280;33123;50.118;10.272;2023-02-02T09:09:58;98034.22;;;5.95;73.84
47374;BME280;33123;50.118;10.272;2023-02-02T09:12:25;98043.47;;;5.97;74.22
47374;BME280;33123;50.118;10.272;2023-02-02T09:14:52;98045.06;;;5.98;73.99
47374;BME280;33123;50.118;10.272;2023-02-02T09:17:18;98042.66;;;5.97;73.91
47374;BME280;33123;50.118;10.272;2023-02-02T09:19:47;98047.88;;;5.97;73.90
47374;BME280;33123;50.118;10.272;2023-02-02T09:22:14;98041.84;;;5.96;73.92
47374;BME280;33123;50.118;10.272;2023-02-02T09:24:41;97994.03;;;5.69;73.77
47374;BME280;33123;50.118;10.272;2023-02-02T09:27:07;98040.84;;;5.97;73.98
47374;BME280;33123;50.118;10.272;2023-02-02T09:29:34;98050.09;;;6.00;73.90
47374;BME280;33123;50.118;10.272;2023-02-02T09:32:01;98038.63;;;6.01;73.81
47374;BME280;33123;50.118;10.272;2023-02-02T09:34:27;98044.66;;;6.01;74.02
47374;BME280;33123;50.118;10.272;2023-02-02T09:36:55;98047.47;;;6.06;73.87
47374;BME280;33123;50.118;10.272;2023-02-02T09:39:22;98053.84;;;6.11;74.23
47374;BME280;33123;50.118;10.272;2023-02-02T09:42:19;98047.00;;;6.16;74.11
47374;BME280;33123;50.118;10.272;2023-02-02T09:44:59;98041.34;;;6.19;73.88
47374;BME280;33123;50.118;10.272;2023-02-02T09:47:37;98042.16;;;6.20;73.79
47374;BME280;33123;50.118;10.272;2023-02-02T09:50:14;98048.41;;;6.19;73.86
47374;BME280;33123;50.118;10.272;2023-02-02T09:52:49;98053.25;;;6.15;74.45
47374;BME280;33123;50.118;10.272;2023-02-02T09:55:25;98058.09;;;6.12;74.79
47374;BME280;33123;50.118;10.272;2023-02-02T09:57:58;98049.41;;;6.18;74.93
47374;BME280;33123;50.118;10.272;2023-02-02T10:00:30;98057.06;;;6.19;74.92
47374;BME280;33123;50.118;10.272;2023-02-02T10:03:02;98055.03;;;6.21;75.10
47374;BME280;33123;50.118;10.272;2023-02-02T10:05:42;98061.66;;;6.24;75.74
47374;BME280;33123;50.118;10.272;2023-02-02T10:08:17;98070.50;;;6.29;75.35
47374;BME280;33123;50.118;10.272;2023-02-02T10:10:47;98062.59;;;6.36;75.39
47374;BME280;33123;50.118;10.272;2023-02-02T10:13:17;98039.94;;;6.23;75.34
47374;BME280;33123;50.118;10.272;2023-02-02T10:15:53;98071.63;;;6.47;75.68
47374;BME280;33123;50.118;10.272;2023-02-02T10:18:31;98064.94;;;6.51;75.79
47374;BME280;33123;50.118;10.272;2023-02-02T10:21:03;98066.13;;;6.55;75.81
47374;BME280;33123;50.118;10.272;2023-02-02T10:23:35;98062.88;;;6.59;75.54
47374;BME280;33123;50.118;10.272;2023-02-02T10:26:05;98057.00;;;6.64;75.39
47374;BME280;33123;50.118;10.272;2023-02-02T10:28:41;98059.00;;;6.69;75.24
47374;BME280;33123;50.118;10.272;2023-02-02T10:31:17;98063.00;;;6.71;75.71
47374;BME280;33123;50.118;10.272;2023-02-02T10:33:56;98067.81;;;6.74;75.91
47374;BME280;33123;50.118;10.272;2023-02-02T10:36:34;98065.38;;;6.79;76.07
47374;BME280;33123;50.118;10.272;2023-02-02T10:39:15;98067.94;;;6.86;76.79
47374;BME280;33123;50.118;10.272;2023-02-02T10:41:52;98064.69;;;6.91;77.65
47374;BME280;33123;50.118;10.272;2023-02-02T10:44:29;98066.22;;;6.98;78.03
47374;BME280;33123;50.118;10.272;2023-02-02T10:46:59;98067.00;;;7.05;78.30
47374;BME280;33123;50.118;10.272;2023-02-02T10:49:31;98071.75;;;7.15;78.59
47374;BME280;33123;50.118;10.272;2023-02-02T10:52:03;98074.09;;;7.23;78.43
47374;BME280;33123;50.118;10.272;2023-02-02T10:54:42;98049.63;;;7.11;78.63
47374;BME280;33123;50.118;10.272;2023-02-02T10:57:13;98069.75;;;7.35;78.32
47374;BME280;33123;50.118;10.272;2023-02-02T10:59:47;98063.72;;;7.35;78.07
47374;BME280;33123;50.118;10.272;2023-02-02T11:02:19;98070.22;;;7.51;78.30
47374;BME280;33123;50.118;10.272;2023-02-02T11:04:45;98075.19;;;7.59;77.87
47374;BME280;33123;50.118;10.272;2023-02-02T11:07:29;98085.03;;;7.63;77.50
47374;BME280;33123;50.118;10.272;2023-02-02T11:09:59;98084.38;;;7.68;77.68
47374;BME280;33123;50.118;10.272;2023-02-02T11:12:30;98077.56;;;7.60;77.74
47374;BME280;33123;50.118;10.272;2023-02-02T11:15:00;98077.81;;;7.77;77.67
47374;BME280;33123;50.118;10.272;2023-02-02T11:17:30;98075.94;;;7.84;77.45
47374;BME280;33123;50.118;10.272;2023-02-02T11:19:56;98078.69;;;7.89;77.15
47374;BME280;33123;50.118;10.272;2023-02-02T11:22:26;98084.66;;;7.97;76.98
47374;BME280;33123;50.118;10.272;2023-02-02T11:24:54;98081.66;;;7.93;76.68
47374;BME280;33123;50.118;10.272;2023-02-02T11:27:25;98091.97;;;7.94;76.79
47374;BME280;33123;50.118;10.272;2023-02-02T11:29:55;98090.94;;;7.96;76.51
47374;BME280;33123;50.118;10.272;2023-02-02T11:32:26;98085.03;;;8.00;76.37
47374;BME280;33123;50.118;10.272;2023-02-02T11:35:15;98089.41;;;8.06;76.42
47374;BME280;33123;50.118;10.272;2023-02-02T11:37:55;98090.63;;;8.04;76.30
47374;BME280;33123;50.118;10.272;2023-02-02T11:40:29;98092.25;;;8.05;76.77
47374;BME280;33123;50.118;10.272;2023-02-02T11:43:02;98086.94;;;8.11;76.49
47374;BME280;33123;50.118;10.272;2023-02-02T11:45:33;98081.69;;;8.11;76.57
47374;BME280;33123;50.118;10.272;2023-02-02T11:48:03;98082.03;;;8.15;76.51
47374;BME280;33123;50.118;10.272;2023-02-02T11:50:31;98094.13;;;8.16;76.38
47374;BME280;33123;50.118;10.272;2023-02-02T11:52:58;98086.84;;;8.18;76.32
47374;BME280;33123;50.118;10.272;2023-02-02T11:55:28;98091.66;;;8.21;76.27
47374;BME280;33123;50.118;10.272;2023-02-02T11:58:23;98099.66;;;8.26;76.14
47374;BME280;33123;50.118;10.272;2023-02-02T12:00:55;98097.84;;;8.27;76.31
47374;BME280;33123;50.118;10.272;2023-02-02T12:03:33;98080.25;;;8.27;75.88
47374;BME280;33123;50.118;10.272;2023-02-02T12:06:00;98078.47;;;8.28;75.72
47374;BME280;33123;50.118;10.272;2023-02-02T12:08:42;98072.97;;;8.29;75.82
47374;BME280;33123;50.118;10.272;2023-02-02T12:11:20;98076.78;;;8.33;75.97
47374;BME280;33123;50.118;10.272;2023-02-02T12:14:01;98096.00;;;8.27;76.26
47374;BME280;33123;50.118;10.272;2023-02-02T12:16:46;98093.19;;;8.29;76.44
47374;BME280;33123;50.118;10.272;2023-02-02T12:19:44;98098.75;;;8.39;75.91
47374;BME280;33123;50.118;10.272;2023-02-02T12:22:26;98106.41;;;8.40;75.83
47374;BME280;33123;50.118;10.272;2023-02-02T12:25:02;98091.94;;;8.31;75.61
47374;BME280;33123;50.118;10.272;2023-02-02T12:27:39;98109.59;;;8.42;75.64
47374;BME280;33123;50.118;10.272;2023-02-02T12:30:18;98084.72;;;8.27;75.50
47374;BME280;33123;50.118;10.272;2023-02-02T12:33:21;98108.56;;;8.43;75.89
47374;BME280;33123;50.118;10.272;2023-02-02T12:36:10;98125.44;;;8.36;75.44
47374;BME280;33123;50.118;10.272;2023-02-02T12:39:07;98128.78;;;8.43;75.57
47374;BME280;33123;50.118;10.272;2023-02-02T12:41:43;98126.00;;;8.38;75.66
47374;BME280;33123;50.118;10.272;2023-02-02T12:44:20;98127.47;;;8.34;75.34
47374;BME280;33123;50.118;10.272;2023-02-02T12:47:08;98129.06;;;8.35;75.28
47374;BME280;33123;50.118;10.272;2023-02-02T12:49:59;98132.91;;;8.32;75.70
47374;BME280;33123;50.118;10.272;2023-02-02T12:52:38;98145.06;;;8.33;75.80
47374;BME280;33123;50.118;10.272;2023-02-02T12:55:16;98122.44;;;8.14;74.85
47374;BME280;33123;50.118;10.272;2023-02-02T12:57:55;98146.94;;;8.26;73.86
47374;BME280;33123;50.118;10.272;2023-02-02T13:00:34;98143.00;;;8.17;72.92
47374;BME280;33123;50.118;10.272;2023-02-02T13:03:17;98144.31;;;8.08;73.01
47374;BME280;33123;50.118;10.272;2023-02-02T13:05:54;98152.50;;;8.00;72.88
47374;BME280;33123;50.118;10.272;2023-02-02T13:08:26;98150.59;;;7.88;73.53
47374;BME280;33123;50.118;10.272;2023-02-02T13:10:58;98124.16;;;7.65;73.02
47374;BME280;33123;50.118;10.272;2023-02-02T13:13:29;98147.34;;;7.68;73.65
47374;BME280;33123;50.118;10.272;2023-02-02T13:16:03;98151.25;;;7.59;73.67
47374;BME280;33123;50.118;10.272;2023-02-02T13:18:35;98161.06;;;7.45;73.24
47374;BME280;33123;50.118;10.272;2023-02-02T13:21:06;98160.50;;;7.36;73.69